sensor_id;sensor_type;location;lat;lon;timestamp;pressure;altitude;pressure_sealevel;temperature;humidity
59240;BME280;45010;53.640;10.578;2023-04-29T00:01:16;100431.06;;;25.64;31.31
59240;BME280;45010;53.640;10.578;2023-04-29T00:04:17;100428.63;;;25.63;31.13
59240;BME280;45010;53.640;10.578;2023-04-29T00:07:17;100425.09;;;25.57;31.64
59240;BME280;45010;53.640;10.578;2023-04-29T00:10:17;100413.28;;;25.53;31.17
59240;BME280;45010;53.640;10.578;2023-04-29T00:13:18;100406.00;;;25.48;31.36
59240;BME280;45010;53.640;10.578;2023-04-29T00:16:18;100414.91;;;25.54;31.44
59240;BME280;45010;53.640;10.578;2023-04-29T00:19:18;100417.78;;;25.52;31.39
59240;BME280;45010;53.640;10.578;2023-04-29T00:22:19;100419.88;;;25.50;31.47
59240;BME280;45010;53.640;10.578;2023-04-29T00:25:21;100426.53;;;25.48;31.10
59240;BME280;45010;53.640;10.578;2023-04-29T00:28:22;100414.25;;;25.47;31.35
59240;BME280;45010;53.640;10.578;2023-04-29T00:31:22;100411.00;;;25.45;31.17
59240;BME280;45010;53.640;10.578;2023-04-29T00:34:22;100418.44;;;25.43;31.29
59240;BME280;45010;53.640;10.578;2023-04-29T00:37:23;100416.81;;;25.42;31.45
59240;BME280;45010;53.640;10.578;2023-04-29T00:40:23;100416.00;;;25.41;31.44
59240;BME280;45010;53.640;10.578;2023-04-29T00:43:23;100421.84;;;25.38;31.37
59240;BME280;45010;53.640;10.578;2023-04-29T00:46:24;100437.03;;;25.37;31.37
59240;BME280;45010;53.640;10.578;2023-04-29T00:49:24;100433.81;;;25.35;31.58
59240;BME280;45010;53.640;10.578;2023-04-29T00:52:25;100429.78;;;25.33;31.57
59240;BME280;45010;53.640;10.578;2023-04-29T00:55:28;100425.41;;;25.27;31.50
59240;BME280;45010;53.640;10.578;2023-04-29T00:58:29;100428.31;;;25.25;31.60
59240;BME280;45010;53.640;10.578;2023-04-29T01:01:32;100437.47;;;25.29;31.55
59240;BME280;45010;53.640;10.578;2023-04-29T01:04:33;100444.66;;;25.29;31.75
59240;BME280;45010;53.640;10.578;2023-04-29T01:07:41;100428.81;;;25.22;31.60
59240;BME280;45010;53.640;10.578;2023-04-29T01:10:53;100439.00;;;25.25;31.72
59240;BME280;45010;53.640;10.578;2023-04-29T01:13:57;100445.38;;;25.24;31.68
59240;BME280;45010;53.640;10.578;2023-04-29T01:17:05;100443.22;;;25.21;31.57
59240;BME280;45010;53.640;10.578;2023-04-29T01:20:09;100428.63;;;25.11;31.64
59240;BME280;45010;53.640;10.578;2023-04-29T01:23:10;100425.41;;;25.09;31.75
59240;BME280;45010;53.640;10.578;2023-04-29T01:26:10;100438.34;;;25.18;31.67
59240;BME280;45010;53.640;10.578;2023-04-29T01:29:21;100448.22;;;25.17;31.71
59240;BME280;45010;53.640;10.578;2023-04-29T01:32:40;100451.91;;;25.16;31.77
59240;BME280;45010;53.640;10.578;2023-04-29T01:35:47;100454.84;;;25.15;31.92
59240;BME280;45010;53.640;10.578;2023-04-29T01:39:10;100422.47;;;24.94;31.65
59240;BME280;45010;53.640;10.578;2023-04-29T01:42:37;100453.72;;;25.10;31.79
59240;BME280;45010;53.640;10.578;2023-04-29T01:45:38;100455.81;;;25.08;31.83
59240;BME280;45010;53.640;10.578;2023-04-29T01:48:43;100459.44;;;25.02;31.66
59240;BME280;45010;53.640;10.578;2023-04-29T01:51:43;100479.25;;;25.06;31.86
59240;BME280;45010;53.640;10.578;2023-04-29T01:54:44;100480.31;;;25.05;31.82
59240;BME280;45010;53.640;10.578;2023-04-29T01:57:45;100481.34;;;25.04;31.94
59240;BME280;45010;53.640;10.578;2023-04-29T02:00:45;100478.13;;;25.02;31.99
59240;BME280;45010;53.640;10.578;2023-04-29T02:03:45;100483.47;;;25.02;31.95
59240;BME280;45010;53.640;10.578;2023-04-29T02:06:46;100485.53;;;25.00;32.02
59240;BME280;45010;53.640;10.578;2023-04-29T02:09:46;100485.53;;;25.00;32.02
59240;BME280;45010;53.640;10.578;2023-04-29T02:12:46;100487.66;;;24.98;32.11
59240;BME280;45010;53.640;10.578;2023-04-29T02:15:47;100490.31;;;24.98;31.76
59240;BME280;45010;53.640;10.578;2023-04-29T02:18:47;100486.03;;;24.97;32.02
59240;BME280;45010;53.640;10.578;2023-04-29T02:21:47;100491.38;;;24.97;32.28
59240;BME280;45010;53.640;10.578;2023-04-29T02:24:47;100490.00;;;24.94;31.99
59240;BME280;45010;53.640;10.578;2023-04-29T02:27:48;100483.06;;;24.81;32.54
59240;BME280;45010;53.640;10.578;2023-04-29T02:30:48;100482.94;;;24.88;31.99
59240;BME280;45010;53.640;10.578;2023-04-29T02:33:49;100493.94;;;24.92;31.62
59240;BME280;45010;53.640;10.578;2023-04-29T02:36:49;100491.19;;;24.87;32.09
59240;BME280;45010;53.640;10.578;2023-04-29T02:39:49;100416.69;;;24.39;31.99
59240;BME280;45010;53.640;10.578;2023-04-29T02:42:50;100495.22;;;24.89;31.96
59240;BME280;45010;53.640;10.578;2023-04-29T02:45:51;100493.28;;;24.84;32.17
59240;BME280;45010;53.640;10.578;2023-04-29T02:48:51;100515.75;;;24.89;31.83
59240;BME280;45010;53.640;10.578;2023-04-29T02:51:52;100515.75;;;24.89;32.05
59240;BME280;45010;53.640;10.578;2023-04-29T02:54:52;100524.81;;;24.88;32.13
59240;BME280;45010;53.640;10.578;2023-04-29T02:57:52;100523.19;;;24.87;32.34
59240;BME280;45010;53.640;10.578;2023-04-29T03:00:52;100506.94;;;24.76;32.05
59240;BME280;45010;53.640;10.578;2023-04-29T03:03:53;100511.63;;;24.69;32.15
59240;BME280;45010;53.640;10.578;2023-04-29T03:06:54;100539.66;;;24.83;32.16
59240;BME280;45010;53.640;10.578;2023-04-29T03:09:55;100536.44;;;24.81;32.12
59240;BME280;45010;53.640;10.578;2023-04-29T03:12:56;100540.13;;;24.80;32.16
59240;BME280;45010;53.640;10.578;2023-04-29T03:15:56;100547.28;;;24.80;32.05
59240;BME280;45010;53.640;10.578;2023-04-29T03:18:59;100549.16;;;24.79;31.81
59240;BME280;45010;53.640;10.578;2023-04-29T03:21:59;100552.88;;;24.78;31.90
59240;BME280;45010;53.640;10.578;2023-04-29T03:25:00;100555.56;;;24.78;32.19
59240;BME280;45010;53.640;10.578;2023-04-29T03:28:00;100551.25;;;24.77;32.08
59240;BME280;45010;53.640;10.578;2023-04-29T03:31:01;100549.53;;;24.71;32.19
59240;BME280;45010;53.640;10.578;2023-04-29T03:34:01;100547.78;;;24.65;32.17
59240;BME280;45010;53.640;10.578;2023-04-29T03:37:01;100567.72;;;24.74;32.12
59240;BME280;45010;53.640;10.578;2023-04-29T03:40:02;100567.72;;;24.74;32.07
59240;BME280;45010;53.640;10.578;2023-04-29T03:43:03;100566.13;;;24.73;32.19
59240;BME280;45010;53.640;10.578;2023-04-29T03:46:03;100568.19;;;24.71;32.17
59240;BME280;45010;53.640;10.578;2023-04-29T03:49:03;100565.78;;;24.69;32.20
59240;BME280;45010;53.640;10.578;2023-04-29T03:52:04;100577.25;;;24.70;32.17
59240;BME280;45010;53.640;10.578;2023-04-29T03:55:05;100578.28;;;24.69;32.19
59240;BME280;45010;53.640;10.578;2023-04-29T03:58:06;100584.69;;;24.68;32.39
59240;BME280;45010;53.640;10.578;2023-04-29T04:01:06;100596.13;;;24.68;32.27
59240;BME280;45010;53.640;10.578;2023-04-29T04:04:06;100573.94;;;24.51;32.04
59240;BME280;45010;53.640;10.578;2023-04-29T04:07:07;100602.53;;;24.67;32.29
59240;BME280;45010;53.640;10.578;2023-04-29T04:10:07;100604.38;;;24.67;32.23
59240;BME280;45010;53.640;10.578;2023-04-29T04:13:08;100601.13;;;24.65;32.29
59240;BME280;45010;53.640;10.578;2023-04-29T04:16:09;100589.78;;;24.57;32.38
59240;BME280;45010;53.640;10.578;2023-04-29T04:19:12;100608.09;;;24.66;32.23
59240;BME280;45010;53.640;10.578;2023-04-29T04:22:12;100611.78;;;24.65;32.33
59240;BME280;45010;53.640;10.578;2023-04-29T04:25:13;100621.19;;;24.67;32.19
59240;BME280;45010;53.640;10.578;2023-04-29T04:28:14;100621.19;;;24.67;32.31
59240;BME280;45010;53.640;10.578;2023-04-29T04:31:14;100631.06;;;24.67;32.42
59240;BME280;45010;53.640;10.578;2023-04-29T04:34:15;100634.78;;;24.66;32.38
59240;BME280;45010;53.640;10.578;2023-04-29T04:37:16;100634.78;;;24.66;32.38
59240;BME280;45010;53.640;10.578;2023-04-29T04:40:16;100643.00;;;24.64;32.13
59240;BME280;45010;53.640;10.578;2023-04-29T04:43:17;100640.56;;;24.63;32.32
59240;BME280;45010;53.640;10.578;2023-04-29T04:46:17;100650.19;;;24.64;32.43
59240;BME280;45010;53.640;10.578;2023-04-29T04:49:17;100636.97;;;24.57;32.48
59240;BME280;45010;53.640;10.578;2023-04-29T04:52:20;100646.00;;;24.56;32.50
59240;BME280;45010;53.640;10.578;2023-04-29T04:55:21;100646.00;;;24.56;32.42
59240;BME280;45010;53.640;10.578;2023-04-29T04:58:22;100658.66;;;24.61;32.35
59240;BME280;45010;53.640;10.578;2023-04-29T05:01:22;100665.84;;;24.60;32.51
59240;BME280;45010;53.640;10.578;2023-04-29T05:04:22;100673.03;;;24.60;32.32
59240;BME280;45010;53.640;10.578;2023-04-29T05:07:23;100664.78;;;24.49;32.43
59240;BME280;45010;53.640;10.578;2023-04-29T05:10:23;100685.78;;;24.57;32.62
59240;BME280;45010;53.640;10.578;2023-04-29T05:13:25;100685.78;;;24.57;32.60
59240;BME280;45010;53.640;10.578;2023-04-29T05:16:26;100690.06;;;24.58;32.52
59240;BME280;45010;53.640;10.578;2023-04-29T05:19:26;100695.63;;;24.57;32.54
59240;BME280;45010;53.640;10.578;2023-04-29T05:22:26;100693.91;;;24.51;32.57
59240;BME280;45010;53.640;10.578;2023-04-29T05:25:27;100699.31;;;24.56;32.51
59240;BME280;45010;53.640;10.578;2023-04-29T05:28:27;100705.47;;;24.56;32.63
59240;BME280;45010;53.640;10.578;2023-04-29T05:31:28;100703.88;;;24.55;32.51
59240;BME280;45010;53.640;10.578;2023-04-29T05:34:28;100708.38;;;24.55;32.43
59240;BME280;45010;53.640;10.578;2023-04-29T05:37:28;100707.56;;;24.54;32.50
59240;BME280;45010;53.640;10.578;2023-04-29T05:40:31;100720.09;;;24.54;32.61
59240;BME280;45010;53.640;10.578;2023-04-29T05:43:31;100728.91;;;24.54;32.64
59240;BME280;45010;53.640;10.578;2023-04-29T05:46:31;100726.25;;;24.54;32.62
59240;BME280;45010;53.640;10.578;2023-04-29T05:49:32;100731.56;;;24.54;32.68
59240;BME280;45010;53.640;10.578;2023-04-29T05:52:32;100721.91;;;24.53;32.62
59240;BME280;45010;53.640;10.578;2023-04-29T05:55:32;100728.91;;;24.54;32.57
59240;BME280;45010;53.640;10.578;2023-04-29T05:58:34;100736.06;;;24.54;32.58
59240;BME280;45010;53.640;10.578;2023-04-29T06:01:34;100741.41;;;24.54;32.63
59240;BME280;45010;53.640;10.578;2023-04-29T06:04:34;100746.97;;;24.52;32.63
59240;BME280;45010;53.640;10.578;2023-04-29T06:07:35;100745.34;;;24.51;32.61
59240;BME280;45010;53.640;10.578;2023-04-29T06:10:35;100750.69;;;24.51;32.55
59240;BME280;45010;53.640;10.578;2023-04-29T06:13:36;100751.50;;;24.52;32.68
59240;BME280;45010;53.640;10.578;2023-04-29T06:16:36;100750.69;;;24.51;32.54
59240;BME280;45010;53.640;10.578;2023-04-29T06:19:36;100759.72;;;24.50;32.71
59240;BME280;45010;53.640;10.578;2023-04-29T06:22:37;100761.34;;;24.51;32.65
59240;BME280;45010;53.640;10.578;2023-04-29T06:25:38;100777.34;;;24.51;32.57
59240;BME280;45010;53.640;10.578;2023-04-29T06:28:38;100772.00;;;24.51;32.56
59240;BME280;45010;53.640;10.578;2023-04-29T06:31:38;100772.00;;;24.51;32.75
59240;BME280;45010;53.640;10.578;2023-04-29T06:34:38;100770.38;;;24.50;32.86
59240;BME280;45010;53.640;10.578;2023-04-29T06:37:39;100786.38;;;24.50;32.78
59240;BME280;45010;53.640;10.578;2023-04-29T06:40:39;100781.06;;;24.50;32.71
59240;BME280;45010;53.640;10.578;2023-04-29T06:43:40;100781.88;;;24.51;32.78
59240;BME280;45010;53.640;10.578;2023-04-29T06:46:42;100778.25;;;24.45;32.76
59240;BME280;45010;53.640;10.578;2023-04-29T06:49:42;100787.09;;;24.45;32.65
59240;BME280;45010;53.640;10.578;2023-04-29T06:52:42;100798.66;;;24.51;32.82
59240;BME280;45010;53.640;10.578;2023-04-29T06:55:43;100807.25;;;24.53;32.76
59240;BME280;45010;53.640;10.578;2023-04-29T06:58:45;100801.91;;;24.53;33.13
59240;BME280;45010;53.640;10.578;2023-04-29T07:01:46;100773.50;;;24.35;32.96
59240;BME280;45010;53.640;10.578;2023-04-29T07:04:46;100807.25;;;24.53;32.96
59240;BME280;45010;53.640;10.578;2023-04-29T07:07:48;100807.25;;;24.53;32.88
59240;BME280;45010;53.640;10.578;2023-04-29T07:10:55;100806.09;;;24.49;33.13
59240;BME280;45010;53.640;10.578;2023-04-29T07:13:56;100808.88;;;24.54;32.98
59240;BME280;45010;53.640;10.578;2023-04-29T07:16:57;100824.88;;;24.54;33.12
59240;BME280;45010;53.640;10.578;2023-04-29T07:19:57;100830.78;;;24.56;33.03
59240;BME280;45010;53.640;10.578;2023-04-29T07:22:58;100829.97;;;24.56;32.96
59240;BME280;45010;53.640;10.578;2023-04-29T07:25:58;100833.47;;;24.56;32.94
59240;BME280;45010;53.640;10.578;2023-04-29T07:29:07;100834.50;;;24.55;33.10
59240;BME280;45010;53.640;10.578;2023-04-29T07:32:07;100838.78;;;24.56;32.87
59240;BME280;45010;53.640;10.578;2023-04-29T07:35:08;100841.47;;;24.56;33.19
59240;BME280;45010;53.640;10.578;2023-04-29T07:38:08;100849.47;;;24.56;33.14
59240;BME280;45010;53.640;10.578;2023-04-29T07:41:09;100839.63;;;24.57;33.42
59240;BME280;45010;53.640;10.578;2023-04-29T07:44:09;100838.78;;;24.56;34.00
59240;BME280;45010;53.640;10.578;2023-04-29T07:47:10;100849.81;;;24.60;34.66
59240;BME280;45010;53.640;10.578;2023-04-29T07:50:11;100855.97;;;24.61;34.85
59240;BME280;45010;53.640;10.578;2023-04-29T07:53:12;100853.06;;;24.62;35.34
59240;BME280;45010;53.640;10.578;2023-04-29T07:56:12;100853.88;;;24.63;35.59
59240;BME280;45010;53.640;10.578;2023-04-29T07:59:13;100852.69;;;24.58;35.65
59240;BME280;45010;53.640;10.578;2023-04-29T08:02:13;100862.44;;;24.65;35.48
59240;BME280;45010;53.640;10.578;2023-04-29T08:05:15;100868.63;;;24.65;35.18
59240;BME280;45010;53.640;10.578;2023-04-29T08:08:16;100866.78;;;24.66;35.04
59240;BME280;45010;53.640;10.578;2023-04-29T08:11:19;100852.69;;;24.58;35.14
59240;BME280;45010;53.640;10.578;2023-04-29T08:14:20;100867.91;;;24.70;34.97
59240;BME280;45010;53.640;10.578;2023-04-29T08:17:20;100872.81;;;24.73;34.89
59240;BME280;45010;53.640;10.578;2023-04-29T08:20:21;100873.38;;;24.75;34.63
59240;BME280;45010;53.640;10.578;2023-04-29T08:23:21;100862.00;;;24.68;34.74
59240;BME280;45010;53.640;10.578;2023-04-29T08:26:21;100883.16;;;24.81;34.70
59240;BME280;45010;53.640;10.578;2023-04-29T08:29:22;100895.47;;;24.82;34.62
59240;BME280;45010;53.640;10.578;2023-04-29T08:32:22;100898.72;;;24.84;34.68
59240;BME280;45010;53.640;10.578;2023-04-29T08:35:22;100899.88;;;24.89;34.88
59240;BME280;45010;53.640;10.578;2023-04-29T08:38:23;100899.44;;;24.92;34.77
59240;BME280;45010;53.640;10.578;2023-04-29T08:41:23;100909.63;;;24.95;34.76
59240;BME280;45010;53.640;10.578;2023-04-29T08:44:25;100902.69;;;24.94;34.75
59240;BME280;45010;53.640;10.578;2023-04-29T08:47:30;100917.34;;;25.03;34.78
59240;BME280;45010;53.640;10.578;2023-04-29T08:50:36;100919.41;;;25.01;34.80
59240;BME280;45010;53.640;10.578;2023-04-29T08:53:38;100927.88;;;25.10;34.46
59240;BME280;45010;53.640;10.578;2023-04-29T08:56:39;100929.16;;;25.07;34.68
59240;BME280;45010;53.640;10.578;2023-04-29T08:59:39;100935.22;;;25.15;34.68
59240;BME280;45010;53.640;10.578;2023-04-29T09:02:49;100943.78;;;25.17;34.50
59240;BME280;45010;53.640;10.578;2023-04-29T09:05:52;100937.19;;;25.19;34.53
59240;BME280;45010;53.640;10.578;2023-04-29T09:08:53;100943.94;;;25.22;34.60
59240;BME280;45010;53.640;10.578;2023-04-29T09:11:54;100952.50;;;25.24;34.69
59240;BME280;45010;53.640;10.578;2023-04-29T09:14:56;100943.31;;;25.20;34.34
59240;BME280;45010;53.640;10.578;2023-04-29T09:17:56;100948.13;;;25.30;34.61
59240;BME280;45010;53.640;10.578;2023-04-29T09:20:56;100958.53;;;25.31;34.26
59240;BME280;45010;53.640;10.578;2023-04-29T09:23:59;100942.44;;;25.26;34.32
59240;BME280;45010;53.640;10.578;2023-04-29T09:26:59;100951.72;;;25.35;34.62
59240;BME280;45010;53.640;10.578;2023-04-29T09:30:02;100955.44;;;25.34;34.37
59240;BME280;45010;53.640;10.578;2023-04-29T09:33:07;100954.50;;;25.41;33.81
59240;BME280;45010;53.640;10.578;2023-04-29T09:36:07;100966.81;;;25.42;33.33
59240;BME280;45010;53.640;10.578;2023-04-29T09:39:10;100957.06;;;25.35;33.12
59240;BME280;45010;53.640;10.578;2023-04-29T09:42:10;100972.97;;;25.42;32.74
59240;BME280;45010;53.640;10.578;2023-04-29T09:45:11;100968.44;;;25.43;32.94
59240;BME280;45010;53.640;10.578;2023-04-29T09:48:13;100958.34;;;25.45;32.99
59240;BME280;45010;53.640;10.578;2023-04-29T09:51:14;100962.63;;;25.46;32.96
59240;BME280;45010;53.640;10.578;2023-04-29T09:54:28;100964.25;;;25.47;32.73
59240;BME280;45010;53.640;10.578;2023-04-29T09:57:38;100944.19;;;25.32;32.44
59240;BME280;45010;53.640;10.578;2023-04-29T10:00:39;100968.34;;;25.49;32.62
59240;BME280;45010;53.640;10.578;2023-04-29T10:03:40;100966.22;;;25.51;32.54
59240;BME280;45010;53.640;10.578;2023-04-29T10:06:44;100972.41;;;25.52;32.48
59240;BME280;45010;53.640;10.578;2023-04-29T10:09:46;100942.66;;;25.36;32.23
59240;BME280;45010;53.640;10.578;2023-04-29T10:12:46;100977.53;;;25.54;32.21
59240;BME280;45010;53.640;10.578;2023-04-29T10:15:54;100974.63;;;25.55;32.32
59240;BME280;45010;53.640;10.578;2023-04-29T10:18:59;100973.81;;;25.55;32.02
59240;BME280;45010;53.640;10.578;2023-04-29T10:22:08;100984.25;;;25.56;32.32
59240;BME280;45010;53.640;10.578;2023-04-29T10:25:11;100970.91;;;25.56;32.09
59240;BME280;45010;53.640;10.578;2023-04-29T10:28:14;100969.88;;;25.57;31.91
59240;BME280;45010;53.640;10.578;2023-04-29T10:31:16;100975.22;;;25.57;31.95
59240;BME280;45010;53.640;10.578;2023-04-29T10:34:19;100964.53;;;25.57;31.93
59240;BME280;45010;53.640;10.578;2023-04-29T10:37:19;100971.94;;;25.55;31.84
59240;BME280;45010;53.640;10.578;2023-04-29T10:43:35;100975.44;;;25.56;32.05
59240;BME280;45010;53.640;10.578;2023-04-29T10:46:36;100972.78;;;25.56;31.91
59240;BME280;45010;53.640;10.578;2023-04-29T10:49:37;100973.56;;;25.56;31.72
59240;BME280;45010;53.640;10.578;2023-04-29T10:52:54;100962.75;;;25.51;31.96
59240;BME280;45010;53.640;10.578;2023-04-29T10:56:02;100962.75;;;25.51;31.86
59240;BME280;45010;53.640;10.578;2023-04-29T10:59:04;100966.22;;;25.51;31.79
59240;BME280;45010;53.640;10.578;2023-04-29T11:02:04;100985.91;;;25.57;31.67
59240;BME280;45010;53.640;10.578;2023-04-29T11:05:06;100982.19;;;25.58;32.20
59240;BME280;45010;53.640;10.578;2023-04-29T11:11:12;100968.72;;;25.53;31.96
59240;BME280;45010;53.640;10.578;2023-04-29T11:14:14;100979.50;;;25.58;32.10
59240;BME280;45010;53.640;10.578;2023-04-29T11:17:17;100969.53;;;25.54;32.03
59240;BME280;45010;53.640;10.578;2023-04-29T11:20:19;100980.91;;;25.61;32.11
59240;BME280;45010;53.640;10.578;2023-04-29T11:23:23;100992.38;;;25.61;32.42
59240;BME280;45010;53.640;10.578;2023-04-29T11:26:24;100992.38;;;25.61;32.04
59240;BME280;45010;53.640;10.578;2023-04-29T11:29:24;100997.72;;;25.61;32.12
59240;BME280;45010;53.640;10.578;2023-04-29T11:32:27;100994.94;;;25.56;32.37
59240;BME280;45010;53.640;10.578;2023-04-29T11:35:27;101003.06;;;25.61;32.11
59240;BME280;45010;53.640;10.578;2023-04-29T11:38:29;101010.06;;;25.62;32.24
59240;BME280;45010;53.640;10.578;2023-04-29T11:41:30;100976.44;;;25.43;32.16
59240;BME280;45010;53.640;10.578;2023-04-29T11:44:35;101011.69;;;25.63;32.35
59240;BME280;45010;53.640;10.578;2023-04-29T11:47:36;101015.97;;;25.64;32.21
59240;BME280;45010;53.640;10.578;2023-04-29T11:50:36;101007.13;;;25.64;32.41
59240;BME280;45010;53.640;10.578;2023-04-29T11:53:36;101011.44;;;25.65;32.27
59240;BME280;45010;53.640;10.578;2023-04-29T11:56:37;101007.97;;;25.64;32.36
59240;BME280;45010;53.640;10.578;2023-04-29T11:59:37;101011.69;;;25.63;32.24
59240;BME280;45010;53.640;10.578;2023-04-29T12:02:38;101016.56;;;25.67;32.28
59240;BME280;45010;53.640;10.578;2023-04-29T12:05:39;101015.75;;;25.66;32.30
59240;BME280;45010;53.640;10.578;2023-04-29T12:08:40;101021.91;;;25.67;32.21
59240;BME280;45010;53.640;10.578;2023-04-29T12:11:41;101020.28;;;25.65;32.36
59240;BME280;45010;53.640;10.578;2023-04-29T12:14:42;101021.91;;;25.67;32.34
59240;BME280;45010;53.640;10.578;2023-04-29T12:17:43;101020.03;;;25.67;32.01
59240;BME280;45010;53.640;10.578;2023-04-29T12:20:44;101027.47;;;25.65;32.04
59240;BME280;45010;53.640;10.578;2023-04-29T12:23:44;101022.13;;;25.65;31.85
59240;BME280;45010;53.640;10.578;2023-04-29T12:26:45;101011.22;;;25.55;31.78
59240;BME280;45010;53.640;10.578;2023-04-29T12:29:45;101022.13;;;25.65;31.94
59240;BME280;45010;53.640;10.578;2023-04-29T12:32:46;101026.66;;;25.64;31.82
59240;BME280;45010;53.640;10.578;2023-04-29T12:35:51;101017.94;;;25.57;31.73
59240;BME280;45010;53.640;10.578;2023-04-29T12:38:52;101024.78;;;25.65;31.58
59240;BME280;45010;53.640;10.578;2023-04-29T12:41:58;101030.38;;;25.63;31.49
59240;BME280;45010;53.640;10.578;2023-04-29T12:44:58;101022.47;;;25.57;31.40
59240;BME280;45010;53.640;10.578;2023-04-29T12:47:59;101020.63;;;25.57;31.24
59240;BME280;45010;53.640;10.578;2023-04-29T12:51:00;101023.28;;;25.57;31.41
59240;BME280;45010;53.640;10.578;2023-04-29T12:54:02;101012.63;;;25.57;31.21
59240;BME280;45010;53.640;10.578;2023-04-29T12:57:03;101028.75;;;25.62;31.31
59240;BME280;45010;53.640;10.578;2023-04-29T13:00:04;101024.44;;;25.61;31.29
59240;BME280;45010;53.640;10.578;2023-04-29T13:03:04;101026.09;;;25.62;31.04
59240;BME280;45010;53.640;10.578;2023-04-29T13:06:05;101019.91;;;25.62;31.15
59240;BME280;45010;53.640;10.578;2023-04-29T13:09:06;101010.59;;;25.52;30.94
59240;BME280;45010;53.640;10.578;2023-04-29T13:12:10;101015.41;;;25.62;30.90
59240;BME280;45010;53.640;10.578;2023-04-29T13:15:10;101019.91;;;25.62;30.74
59240;BME280;45010;53.640;10.578;2023-04-29T13:18:11;101026.09;;;25.62;30.74
59240;BME280;45010;53.640;10.578;2023-04-29T13:21:11;101020.16;;;25.60;30.65
59240;BME280;45010;53.640;10.578;2023-04-29T13:24:12;101017.47;;;25.60;30.52
59240;BME280;45010;53.640;10.578;2023-04-29T13:27:12;101020.75;;;25.62;30.41
59240;BME280;45010;53.640;10.578;2023-04-29T13:30:13;101017.47;;;25.60;30.69
59240;BME280;45010;53.640;10.578;2023-04-29T13:33:13;101009.78;;;25.52;30.62
59240;BME280;45010;53.640;10.578;2023-04-29T13:36:13;101019.56;;;25.58;30.80
59240;BME280;45010;53.640;10.578;2023-04-29T13:39:14;100993.50;;;25.42;30.51
59240;BME280;45010;53.640;10.578;2023-04-29T13:42:15;101021.19;;;25.59;30.72
59240;BME280;45010;53.640;10.578;2023-04-29T13:45:15;101024.91;;;25.58;30.54
59240;BME280;45010;53.640;10.578;2023-04-29T13:48:16;101022.47;;;25.57;30.53
59240;BME280;45010;53.640;10.578;2023-04-29T13:51:16;101032.94;;;25.58;30.63
59240;BME280;45010;53.640;10.578;2023-04-29T13:54:16;101027.81;;;25.57;30.51
59240;BME280;45010;53.640;10.578;2023-04-29T13:57:19;101027.22;;;25.55;30.27
59240;BME280;45010;53.640;10.578;2023-04-29T14:00:20;101036.66;;;25.57;30.96
59240;BME280;45010;53.640;10.578;2023-04-29T14:03:20;101036.66;;;25.57;30.38
59240;BME280;45010;53.640;10.578;2023-04-29T14:06:20;101043.00;;;25.56;30.37
59240;BME280;45010;53.640;10.578;2023-04-29T14:09:21;101034.03;;;25.50;30.47
59240;BME280;45010;53.640;10.578;2023-04-29T14:12:21;101048.34;;;25.56;30.31
59240;BME280;45010;53.640;10.578;2023-04-29T14:15:22;101052.06;;;25.55;30.34
59240;BME280;45010;53.640;10.578;2023-04-29T14:18:22;101046.72;;;25.55;30.47
59240;BME280;45010;53.640;10.578;2023-04-29T14:21:22;101036.72;;;25.50;30.44
59240;BME280;45010;53.640;10.578;2023-04-29T14:24:23;101053.69;;;25.56;30.36
59240;BME280;45010;53.640;10.578;2023-04-29T14:27:23;101058.22;;;25.56;30.27
59240;BME280;45010;53.640;10.578;2023-04-29T14:30:23;101059.03;;;25.56;30.23
59240;BME280;45010;53.640;10.578;2023-04-29T14:33:24;101080.41;;;25.56;30.17
59240;BME280;45010;53.640;10.578;2023-04-29T14:36:24;101073.44;;;25.55;30.06
59240;BME280;45010;53.640;10.578;2023-04-29T14:39:27;101084.13;;;25.55;30.02
59240;BME280;45010;53.640;10.578;2023-04-29T14:42:28;101091.34;;;25.55;29.93
59240;BME280;45010;53.640;10.578;2023-04-29T14:45:28;101092.13;;;25.55;29.83
59240;BME280;45010;53.640;10.578;2023-04-29T14:48:29;101090.50;;;25.54;29.83
59240;BME280;45010;53.640;10.578;2023-04-29T14:51:29;101098.50;;;25.54;29.78
59240;BME280;45010;53.640;10.578;2023-04-29T14:54:30;101091.56;;;25.53;29.94
59240;BME280;45010;53.640;10.578;2023-04-29T14:57:30;101100.59;;;25.52;30.13
59240;BME280;45010;53.640;10.578;2023-04-29T15:00:30;101090.34;;;25.49;30.08
59240;BME280;45010;53.640;10.578;2023-04-29T15:03:31;101096.91;;;25.53;30.30
59240;BME280;45010;53.640;10.578;2023-04-29T15:06:31;101098.50;;;25.54;30.64
59240;BME280;45010;53.640;10.578;2023-04-29T15:09:32;101101.75;;;25.56;30.40
59240;BME280;45010;53.640;10.578;2023-04-29T15:12:32;101105.03;;;25.58;30.64
59240;BME280;45010;53.640;10.578;2023-04-29T15:15:33;101117.34;;;25.59;30.65
59240;BME280;45010;53.640;10.578;2023-04-29T15:18:33;101117.34;;;25.59;30.34
59240;BME280;45010;53.640;10.578;2023-04-29T15:21:34;101098.97;;;25.51;30.42
59240;BME280;45010;53.640;10.578;2023-04-29T15:24:34;101112.00;;;25.59;30.76
59240;BME280;45010;53.640;10.578;2023-04-29T15:27:35;101089.19;;;25.45;30.94
59240;BME280;45010;53.640;10.578;2023-04-29T15:30:36;101108.63;;;25.64;31.06
59240;BME280;45010;53.640;10.578;2023-04-29T15:33:37;101122.81;;;25.64;31.21
59240;BME280;45010;53.640;10.578;2023-04-29T15:36:37;101120.50;;;25.68;31.22
59240;BME280;45010;53.640;10.578;2023-04-29T15:39:38;101129.09;;;25.70;31.34
59240;BME280;45010;53.640;10.578;2023-04-29T15:42:38;101132.13;;;25.74;31.23